Terminal Aerodrome Forecast
Issued by NWS Melbourne, FL

Home | Current Version | Previous Version | Text Only | Print | Product List | Glossary On
Versions: 1 2 3 4 5 6 7 8 9 10 11 12 13
806
FTUS42 KMLB 241740
TAFMLB
TAF
KMLB 241740Z 2418/2518 12011KT P6SM SCT040
     FM250000 12007KT P6SM FEW025
     FM251400 17007KT P6SM SCT030=

USA.gov is the U.S. government's official web portal to all federal, state and local government web resources and services.